Time;durP1;ratioP1;P1;durP2;ratioP2;P2;SDS_P1;SDS_P2;PMS_P1;PMS_P2;Temp;Humidity;BMP_temperature;BMP_pressure;BME280_temperature;BME280_humidity;BME280_pressure;Samples;Min_cycle;Max_cycle;Signal;HPM_P1;HPM_P2
2024/04/23 00:00:11;;;;;;;3.00;1.75;;;6.70;99.90;;;;;;5536328;25;20004;-68
2024/04/23 00:02:37;;;;;;;6.70;2.83;;;6.90;99.90;;;;;;5536404;25;19989;-69
2024/04/23 00:05:02;;;;;;;6.53;2.10;;;6.60;99.90;;;;;;5537516;25;19993;-68
2024/04/23 00:07:28;;;;;;;5.90;2.30;;;6.60;99.90;;;;;;5554579;25;20001;-70
2024/04/23 00:09:54;;;;;;;2.72;1.73;;;6.60;99.90;;;;;;5552830;25;19990;-70
2024/04/23 00:12:19;;;;;;;2.10;1.70;;;6.50;99.90;;;;;;5543123;25;19995;-69
2024/04/23 00:14:45;;;;;;;3.38;2.25;;;6.40;99.90;;;;;;5536353;25;19990;-70
2024/04/23 00:17:11;;;;;;;3.13;1.83;;;6.30;99.90;;;;;;5536235;25;19996;-69
2024/04/23 00:19:36;;;;;;;2.92;1.63;;;6.40;99.90;;;;;;5536982;25;19997;-70
2024/04/23 00:22:02;;;;;;;2.03;1.45;;;6.30;99.90;;;;;;5535809;25;20003;-70
2024/04/23 00:24:28;;;;;;;4.00;2.40;;;6.20;99.90;;;;;;5535509;25;19993;-70
2024/04/23 00:26:58;;;;;;;8.48;2.13;;;6.20;99.90;;;;;;5535252;25;19993;-70
2024/04/23 00:29:25;;;;;;;2.20;1.60;;;6.20;99.90;;;;;;5514452;25;20191;-70
2024/04/23 00:31:50;;;;;;;1.95;0.90;;;6.20;99.90;;;;;;5535403;25;19985;-70
2024/04/23 00:34:18;;;;;;;3.67;1.58;;;6.10;99.90;;;;;;5536653;25;19997;-70
2024/04/23 00:36:54;;;;;;;1.02;0.90;;;6.00;99.90;;;;;;5535117;25;20037;-70
2024/04/23 00:39:20;;;;;;;3.05;2.22;;;5.90;99.90;;;;;;5508530;26;19985;-71
2024/04/23 00:41:46;;;;;;;2.15;1.40;;;6.00;99.90;;;;;;5537159;25;20017;-70
2024/04/23 00:44:14;;;;;;;4.13;2.40;;;6.30;99.90;;;;;;5535367;25;20002;-70
2024/04/23 00:46:40;;;;;;;2.40;1.00;;;6.00;99.90;;;;;;5534945;25;20000;-69
2024/04/23 00:49:09;;;;;;;4.72;2.15;;;6.00;99.90;;;;;;5547506;25;19985;-70
2024/04/23 00:51:35;;;;;;;3.10;2.15;;;6.00;99.90;;;;;;5536028;25;20570;-70
2024/04/23 00:54:02;;;;;;;3.10;1.48;;;5.80;99.90;;;;;;5534407;25;20004;-70
2024/04/23 00:56:29;;;;;;;2.53;1.45;;;5.90;99.90;;;;;;5535247;25;20005;-71
2024/04/23 00:58:56;;;;;;;1.10;0.90;;;5.90;99.90;;;;;;5508719;26;20038;-70
2024/04/23 01:01:22;;;;;;;2.50;1.45;;;;;;;;;;5534861;25;20008;-70
2024/04/23 01:03:48;;;;;;;2.83;1.83;;;5.90;99.90;;;;;;5535254;25;20457;-70
2024/04/23 01:06:14;;;;;;;2.97;1.73;;;5.80;99.90;;;;;;5535366;25;19993;-70
2024/04/23 01:08:40;;;;;;;2.90;1.58;;;5.70;99.90;;;;;;5551645;25;20008;-70
2024/04/23 01:11:06;;;;;;;3.15;1.73;;;;;;;;;;5538284;25;20203;-69
2024/04/23 01:13:32;;;;;;;2.55;1.50;;;;;;;;;;5534855;25;20235;-69
2024/04/23 01:15:58;;;;;;;4.22;1.80;;;5.80;99.90;;;;;;5523521;25;20202;-69
2024/04/23 01:18:24;;;;;;;2.45;1.23;;;5.90;99.90;;;;;;5550342;25;20033;-69
2024/04/23 01:20:55;;;;;;;2.97;1.58;;;5.80;99.90;;;;;;5500127;26;20022;-69
2024/04/23 01:23:30;;;;;;;2.30;1.38;;;5.80;99.90;;;;;;5496683;26;19994;-68
2024/04/23 01:26:06;;;;;;;2.22;1.05;;;5.80;99.90;;;;;;5522927;25;19989;-67
2024/04/23 01:28:32;;;;;;;3.22;1.10;;;;;;;;;;5509535;25;19988;-68
2024/04/23 01:30:58;;;;;;;1.75;1.52;;;;;;;;;;5502745;26;19989;-68
2024/04/23 01:33:25;;;;;;;1.65;1.08;;;5.70;99.90;;;;;;5534313;25;20072;-69
2024/04/23 01:35:52;;;;;;;1.35;1.15;;;;;;;;;;5534346;25;20210;-68
2024/04/23 01:38:18;;;;;;;4.43;1.77;;;;;;;;;;5536050;25;19995;-68
2024/04/23 01:40:44;;;;;;;2.25;1.45;;;5.80;99.90;;;;;;5534172;25;19997;-68
2024/04/23 01:43:10;;;;;;;2.40;1.42;;;;;;;;;;5535723;25;19998;-68
2024/04/23 01:45:36;;;;;;;1.02;0.70;;;5.80;99.90;;;;;;5534470;25;19997;-68
2024/04/23 01:48:04;;;;;;;2.22;1.35;;;5.80;99.90;;;;;;5477430;26;20042;-68
2024/04/23 01:50:30;;;;;;;2.77;1.23;;;;;;;;;;5530673;25;20066;-68
2024/04/23 01:52:56;;;;;;;1.70;1.25;;;5.70;99.90;;;;;;5534627;25;20249;-68
2024/04/23 01:55:22;;;;;;;2.20;1.30;;;5.80;99.90;;;;;;5534637;25;19985;-69
2024/04/23 01:57:47;;;;;;;8.13;0.90;;;5.70;99.90;;;;;;5534564;25;19989;-69
2024/04/23 02:00:16;;;;;;;1.77;1.00;;;5.70;99.90;;;;;;5535516;25;19993;-70
2024/04/23 02:02:44;;;;;;;1.45;1.15;;;5.70;99.90;;;;;;5534107;25;19990;-69
2024/04/23 02:05:11;;;;;;;1.13;1.02;;;;;;;;;;5534154;25;20000;-69
2024/04/23 02:07:37;;;;;;;1.67;0.55;;;5.70;99.90;;;;;;5533754;25;20010;-70
2024/04/23 02:10:03;;;;;;;2.75;1.00;;;5.60;99.90;;;;;;5533951;25;19989;-69
2024/04/23 02:12:29;;;;;;;2.22;1.75;;;;;;;;;;5546208;25;20004;-69
2024/04/23 02:14:55;;;;;;;1.20;1.10;;;;;;;;;;5502206;26;19986;-69
2024/04/23 02:17:21;;;;;;;2.25;0.98;;;5.60;99.90;;;;;;5503244;26;20157;-69
2024/04/23 02:19:47;;;;;;;1.25;1.08;;;;;;;;;;5511502;26;19990;-69
2024/04/23 02:22:13;;;;;;;2.88;1.27;;;;;;;;;;5533697;25;19997;-69
2024/04/23 02:24:39;;;;;;;1.65;1.00;;;5.40;99.90;;;;;;5533818;25;20102;-69
2024/04/23 02:27:05;;;;;;;6.78;1.17;;;;;;;;;;5533585;25;19990;-69
2024/04/23 02:29:31;;;;;;;2.30;0.75;;;;;;;;;;5533505;25;19986;-69
2024/04/23 02:32:04;;;;;;;1.88;1.10;;;5.50;99.90;;;;;;5533579;25;20194;-69
2024/04/23 02:34:32;;;;;;;2.35;1.17;;;5.50;99.90;;;;;;5534647;25;20053;-69
2024/04/23 02:36:57;;;;;;;2.75;1.23;;;5.60;99.90;;;;;;5533647;25;19993;-69
2024/04/23 02:39:23;;;;;;;0.32;0.32;;;;;;;;;;5533566;25;20001;-70
2024/04/23 02:41:51;;;;;;;0.03;0.03;;;5.50;99.90;;;;;;5533614;25;19996;-69
2024/04/23 02:44:17;;;;;;;0.40;0.38;;;5.40;99.90;;;;;;5553437;25;19985;-68
2024/04/23 02:46:43;;;;;;;0.85;0.65;;;5.40;99.90;;;;;;5534692;25;19989;-68
2024/04/23 02:49:09;;;;;;;0.40;0.40;;;;;;;;;;5475457;26;19997;-68
2024/04/23 02:51:35;;;;;;;0.10;0.10;;;;;;;;;;5531731;25;19998;-68
2024/04/23 02:54:00;;;;;;;5.78;0.80;;;5.20;99.90;;;;;;5533737;25;19993;-69
2024/04/23 02:56:26;;;;;;;0.82;0.45;;;5.40;99.90;;;;;;5533037;25;20003;-69
2024/04/23 02:58:52;;;;;;;0.35;0.35;;;5.40;99.90;;;;;;5536933;25;20001;-68
2024/04/23 03:01:18;;;;;;;0.00;0.00;;;;;;;;;;5537230;25;19996;-69
2024/04/23 03:03:44;;;;;;;0.17;0.17;;;;;;;;;;5491922;25;20198;-69
2024/04/23 03:06:10;;;;;;;0.20;0.20;;;5.50;99.90;;;;;;5541046;25;19981;-66
2024/04/23 03:08:36;;;;;;;0.10;0.10;;;;;;;;;;5534509;25;19988;-66
2024/04/23 03:11:01;;;;;;;0.10;0.10;;;5.60;99.90;;;;;;5533075;25;19992;-66
2024/04/23 03:13:27;;;;;;;0.00;0.00;;;;;;;;;;5541172;25;20098;-70
2024/04/23 03:15:53;;;;;;;0.00;0.00;;;5.40;99.90;;;;;;5532113;25;19993;-70
2024/04/23 03:18:19;;;;;;;0.00;0.00;;;5.60;99.90;;;;;;5532988;25;20054;-67
2024/04/23 03:20:45;;;;;;;0.00;0.00;;;;;;;;;;5532176;25;19999;-68
2024/04/23 03:23:10;;;;;;;0.00;0.00;;;5.40;99.90;;;;;;5532549;25;19986;-69
2024/04/23 03:25:36;;;;;;;0.00;0.00;;;;;;;;;;5533515;25;20082;-69
2024/04/23 03:28:02;;;;;;;0.00;0.00;;;;;;;;;;5532374;25;19982;-69
2024/04/23 03:30:28;;;;;;;0.22;0.22;;;;;;;;;;5532791;25;19986;-68
2024/04/23 03:32:54;;;;;;;0.00;0.00;;;5.60;99.90;;;;;;5541644;25;20002;-68
2024/04/23 03:35:20;;;;;;;0.25;0.20;;;5.60;99.90;;;;;;5540003;25;20159;-68
2024/04/23 03:37:45;;;;;;;0.00;0.00;;;5.60;99.90;;;;;;5533531;25;19988;-68
2024/04/23 03:40:11;;;;;;;0.00;0.00;;;;;;;;;;5533153;25;20139;-68
2024/04/23 03:42:37;;;;;;;0.00;0.00;;;5.60;99.90;;;;;;5538174;25;20217;-68
2024/04/23 03:45:03;;;;;;;0.00;0.00;;;;;;;;;;5533000;25;19989;-69
2024/04/23 03:47:31;;;;;;;0.10;0.10;;;;;;;;;;5500951;25;19982;-70
2024/04/23 03:49:57;;;;;;;0.00;0.00;;;5.70;99.90;;;;;;5532615;25;20052;-70
2024/04/23 03:52:26;;;;;;;0.00;0.00;;;5.60;99.90;;;;;;5532345;25;19985;-70
2024/04/23 03:54:52;;;;;;;0.00;0.00;;;;;;;;;;5532454;25;19989;-70
2024/04/23 03:57:18;;;;;;;0.15;0.15;;;;;;;;;;5500330;26;19996;-70
2024/04/23 03:59:44;;;;;;;0.00;0.00;;;;;;;;;;5533032;25;20183;-70
2024/04/23 04:07:39;;;;;;;0.00;0.00;;;;;;;;;;5532042;25;20000;-70
2024/04/23 04:10:05;;;;;;;0.00;0.00;;;;;;;;;;5532120;25;19993;-69
2024/04/23 04:12:31;;;;;;;0.10;0.10;;;5.80;99.90;;;;;;5540294;25;20290;-67
2024/04/23 04:14:57;;;;;;;0.30;0.30;;;;;;;;;;5535019;25;20349;-69
2024/04/23 04:17:23;;;;;;;0.00;0.00;;;;;;;;;;5532744;25;20155;-68
2024/04/23 04:19:49;;;;;;;0.00;0.00;;;;;;;;;;5531952;25;20005;-69
2024/04/23 04:22:14;;;;;;;0.00;0.00;;;5.80;99.90;;;;;;5532442;25;20000;-69
2024/04/23 04:24:41;;;;;;;0.00;0.00;;;;;;;;;;5536403;25;20289;-69
2024/04/23 04:27:07;;;;;;;0.10;0.10;;;;;;;;;;5531556;25;19989;-68
2024/04/23 04:29:32;;;;;;;0.50;0.50;;;5.80;99.90;;;;;;5505258;25;19999;-65
2024/04/23 04:31:58;;;;;;;0.00;0.00;;;5.80;99.90;;;;;;5535942;25;19985;-64
2024/04/23 04:34:24;;;;;;;0.00;0.00;;;;;;;;;;5549940;25;19997;-64
2024/04/23 04:36:50;;;;;;;0.20;0.20;;;5.80;99.90;;;;;;5539540;25;19989;-67
2024/04/23 04:39:16;;;;;;;0.00;0.00;;;;;;;;;;5543586;25;20053;-68
2024/04/23 04:41:42;;;;;;;0.00;0.00;;;5.90;99.90;;;;;;5503541;25;20007;-66
2024/04/23 04:44:08;;;;;;;0.00;0.00;;;;;;;;;;5547447;25;19989;-67
2024/04/23 04:46:34;;;;;;;0.43;0.28;;;5.90;99.90;;;;;;5538346;25;19993;-66
2024/04/23 04:49:00;;;;;;;0.00;0.00;;;;;;;;;;5535581;25;20086;-67
2024/04/23 04:51:26;;;;;;;0.03;0.03;;;;;;;;;;5536138;25;20272;-67
2024/04/23 04:53:52;;;;;;;0.45;0.10;;;;;;;;;;5535189;25;20317;-67
2024/04/23 04:56:17;;;;;;;0.00;0.00;;;6.30;99.90;;;;;;5535258;25;19993;-67
2024/04/23 04:58:43;;;;;;;0.00;0.00;;;;;;;;;;5534651;25;20005;-66
2024/04/23 05:01:10;;;;;;;0.00;0.00;;;;;;;;;;5549266;25;19989;-65
2024/04/23 05:03:35;;;;;;;0.00;0.00;;;6.40;99.90;;;;;;5552506;25;20172;-65
2024/04/23 05:06:01;;;;;;;0.00;0.00;;;6.60;99.90;;;;;;5535386;25;19981;-65
2024/04/23 05:08:27;;;;;;;0.05;0.03;;;;;;;;;;5536052;25;20179;-65
2024/04/23 05:10:53;;;;;;;0.10;0.08;;;;;;;;;;5516463;26;20041;-65
2024/04/23 05:13:19;;;;;;;0.00;0.00;;;6.60;99.90;;;;;;5543516;25;20265;-65
2024/04/23 05:15:44;;;;;;;0.00;0.00;;;6.70;99.90;;;;;;5534764;25;19990;-65
2024/04/23 05:18:10;;;;;;;0.00;0.00;;;;;;;;;;5533962;25;20209;-64
2024/04/23 05:20:36;;;;;;;0.10;0.10;;;;;;;;;;5532306;25;20000;-65
2024/04/23 05:23:02;;;;;;;0.00;0.00;;;6.70;99.90;;;;;;5532563;25;19994;-65
2024/04/23 05:25:29;;;;;;;0.00;0.00;;;6.70;99.90;;;;;;5533916;25;20049;-66
2024/04/23 05:27:55;;;;;;;0.00;0.00;;;;;;;;;;5537520;25;19997;-66
2024/04/23 05:33:06;;;;;;;0.00;0.00;;;;;;;;;;5524448;25;20234;-65
2024/04/23 05:35:31;;;;;;;0.30;0.30;;;6.70;99.90;;;;;;5502672;25;19996;-65
2024/04/23 05:37:57;;;;;;;0.25;0.25;;;;;;;;;;5534737;25;19994;-66
2024/04/23 05:40:23;;;;;;;0.10;0.10;;;7.10;96.60;;;;;;5540506;25;19993;-64
2024/04/23 05:42:49;;;;;;;0.10;0.10;;;7.20;98.90;;;;;;5534280;25;19996;-64
2024/04/23 05:45:15;;;;;;;0.00;0.00;;;;;;;;;;5549718;25;20182;-65
2024/04/23 05:48:18;;;;;;;1.08;0.20;;;7.00;99.90;;;;;;5538699;25;19996;-64
2024/04/23 05:51:21;;;;;;;0.00;0.00;;;7.10;95.30;;;;;;5549449;25;19986;-64
2024/04/23 05:54:24;;;;;;;0.22;0.22;;;7.20;99.90;;;;;;5534225;25;20001;-65
2024/04/23 05:56:51;;;;;;;0.00;0.00;;;;;;;;;;5550426;25;19990;-65
2024/04/23 05:59:17;;;;;;;0.00;0.00;;;7.20;99.90;;;;;;5539018;25;19996;-64
2024/04/23 06:01:43;;;;;;;0.05;0.05;;;7.30;99.90;;;;;;5534170;25;19989;-64
2024/04/23 06:04:08;;;;;;;0.00;0.00;;;7.30;99.90;;;;;;5502666;26;20008;-64
2024/04/23 06:06:34;;;;;;;0.20;0.10;;;7.20;99.90;;;;;;5534029;25;20003;-64
2024/04/23 06:09:00;;;;;;;0.10;0.10;;;;;;;;;;5541923;25;20391;-64
2024/04/23 06:11:26;;;;;;;0.10;0.10;;;;;;;;;;5500320;25;20106;-64
2024/04/23 06:14:08;;;;;;;0.00;0.00;;;7.30;99.90;;;;;;5533778;25;19985;-65
2024/04/23 06:16:34;;;;;;;0.00;0.00;;;7.60;99.90;;;;;;5535932;25;19990;-65
2024/04/23 06:19:00;;;;;;;0.00;0.00;;;7.40;99.90;;;;;;5534292;25;20001;-65
2024/04/23 06:21:26;;;;;;;0.20;0.20;;;7.60;99.90;;;;;;5538081;25;20275;-64
2024/04/23 06:23:52;;;;;;;0.00;0.00;;;;;;;;;;5534095;25;19989;-64
2024/04/23 06:26:18;;;;;;;0.75;0.20;;;;;;;;;;5533919;25;19996;-64
2024/04/23 06:28:44;;;;;;;0.00;0.00;;;;;;;;;;5533844;25;19989;-65
2024/04/23 06:31:10;;;;;;;0.20;0.20;;;7.80;92.00;;;;;;5534053;25;20005;-64
2024/04/23 06:33:36;;;;;;;0.00;0.00;;;7.70;99.90;;;;;;5534199;25;20005;-64
2024/04/23 06:36:02;;;;;;;0.00;0.00;;;7.80;99.90;;;;;;5534027;25;19989;-65
2024/04/23 06:38:28;;;;;;;0.15;0.15;;;7.90;99.90;;;;;;5471761;25;19997;-64
2024/04/23 06:40:53;;;;;;;0.00;0.00;;;7.90;99.90;;;;;;5533590;25;20090;-65
2024/04/23 06:43:19;;;;;;;0.00;0.00;;;7.90;99.90;;;;;;5534036;25;19992;-67
2024/04/23 06:45:45;;;;;;;0.00;0.00;;;8.10;99.90;;;;;;5533444;25;19993;-65
2024/04/23 06:48:15;;;;;;;0.00;0.00;;;7.90;99.90;;;;;;5540727;25;20008;-64
2024/04/23 06:50:41;;;;;;;0.10;0.10;;;8.00;99.90;;;;;;5470180;25;20001;-64
2024/04/23 06:53:07;;;;;;;0.00;0.00;;;8.00;91.30;;;;;;5533473;25;20033;-65
2024/04/23 06:55:32;;;;;;;0.03;0.03;;;8.00;99.90;;;;;;5533376;25;19989;-64
2024/04/23 06:57:58;;;;;;;0.22;0.22;;;8.20;99.90;;;;;;5542975;25;19985;-65
2024/04/23 07:00:24;;;;;;;0.10;0.10;;;8.10;90.70;;;;;;5533434;25;19989;-64
2024/04/23 07:02:50;;;;;;;0.00;0.00;;;8.20;90.80;;;;;;5533723;25;19996;-65
2024/04/23 07:05:16;;;;;;;0.10;0.10;;;8.40;99.90;;;;;;5503327;25;19999;-65
2024/04/23 07:07:42;;;;;;;0.00;0.00;;;8.50;99.90;;;;;;5533645;25;20094;-66
2024/04/23 07:10:07;;;;;;;0.98;0.65;;;8.70;99.90;;;;;;5533492;25;20001;-65
2024/04/23 07:12:33;;;;;;;0.00;0.00;;;8.90;99.90;;;;;;5533526;25;20009;-66
2024/04/23 07:14:59;;;;;;;0.00;0.00;;;8.70;88.80;;;;;;5538215;25;19989;-66
2024/04/23 07:17:25;;;;;;;0.00;0.00;;;9.10;99.60;;;;;;5541891;25;19989;-65
2024/04/23 07:19:51;;;;;;;0.00;0.00;;;9.20;94.10;;;;;;5533405;25;19993;-66
2024/04/23 07:22:17;;;;;;;0.10;0.10;;;;;;;;;;5476092;25;19987;-66
2024/04/23 07:24:43;;;;;;;0.20;0.20;;;9.40;83.90;;;;;;5533138;25;20053;-66
2024/04/23 07:27:08;;;;;;;0.05;0.05;;;9.50;96.80;;;;;;5533255;25;20004;-67
2024/04/23 07:29:34;;;;;;;0.32;0.32;;;9.30;97.00;;;;;;5533738;25;20411;-67
2024/04/23 07:32:00;;;;;;;0.38;0.10;;;9.80;97.00;;;;;;5534036;25;20235;-66
2024/04/23 07:34:26;;;;;;;0.00;0.00;;;9.60;97.00;;;;;;5533469;25;20000;-67
2024/04/23 07:36:52;;;;;;;0.17;0.17;;;9.90;97.30;;;;;;5534269;25;20045;-67
2024/04/23 07:39:18;;;;;;;0.00;0.00;;;9.90;97.00;;;;;;5534256;25;20000;-67
2024/04/23 07:41:44;;;;;;;0.63;0.20;;;10.50;96.80;;;;;;5532758;25;20275;-67
2024/04/23 07:44:10;;;;;;;1.90;0.15;;;10.60;95.90;;;;;;5533294;25;20006;-67
2024/04/23 07:46:35;;;;;;;0.10;0.10;;;10.80;94.60;;;;;;5559545;25;20000;-67
2024/04/23 07:49:01;;;;;;;0.10;0.10;;;10.90;94.70;;;;;;5533272;25;19989;-66
2024/04/23 07:51:30;;;;;;;0.25;0.22;;;10.80;94.00;;;;;;5470917;25;19990;-66
2024/04/23 07:53:59;;;;;;;0.05;0.05;;;10.80;94.40;;;;;;5478288;26;19997;-66
2024/04/23 07:56:25;;;;;;;0.10;0.10;;;11.10;94.30;;;;;;5528277;25;20078;-66
2024/04/23 07:58:51;;;;;;;0.00;0.00;;;11.40;94.30;;;;;;5534601;25;19993;-66
2024/04/23 08:01:17;;;;;;;0.05;0.03;;;11.10;94.10;;;;;;5532589;25;20191;-66
2024/04/23 08:03:42;;;;;;;0.10;0.10;;;11.60;93.80;;;;;;5536173;25;19997;-66
2024/04/23 08:06:08;;;;;;;0.10;0.10;;;11.50;94.00;;;;;;5504500;26;19994;-66
2024/04/23 08:08:34;;;;;;;0.10;0.10;;;11.10;93.40;;;;;;5535936;25;20000;-66
2024/04/23 08:11:01;;;;;;;0.00;0.00;;;11.00;93.80;;;;;;5504409;26;19989;-66
2024/04/23 08:13:27;;;;;;;0.00;0.00;;;10.70;92.40;;;;;;5537066;25;19989;-66
2024/04/23 08:15:56;;;;;;;0.03;0.03;;;10.70;79.30;;;;;;5540867;25;20284;-66
2024/04/23 08:18:22;;;;;;;0.10;0.10;;;;;;;;;;5535679;25;20004;-66
2024/04/23 08:20:48;;;;;;;0.10;0.10;;;11.00;95.40;;;;;;5503889;26;20004;-66
2024/04/23 08:23:14;;;;;;;0.00;0.00;;;10.50;94.10;;;;;;5535906;25;19989;-66
2024/04/23 08:25:40;;;;;;;0.00;0.00;;;10.70;95.80;;;;;;5535800;25;19990;-66
2024/04/23 08:28:06;;;;;;;0.00;0.00;;;10.60;96.20;;;;;;5554608;25;19989;-66
2024/04/23 08:30:32;;;;;;;0.00;0.00;;;;;;;;;;5536832;25;19995;-66
2024/04/23 08:32:58;;;;;;;0.00;0.00;;;10.50;96.60;;;;;;5535621;25;20008;-66
2024/04/23 08:35:24;;;;;;;0.00;0.00;;;10.30;96.70;;;;;;5473696;25;19989;-68
2024/04/23 08:37:50;;;;;;;0.08;0.08;;;10.40;97.10;;;;;;5535411;25;20302;-66
2024/04/23 08:40:15;;;;;;;0.17;0.17;;;10.20;96.70;;;;;;5541586;25;19989;-66
2024/04/23 08:42:44;;;;;;;0.20;0.20;;;10.20;96.50;;;;;;5536625;25;20040;-66
2024/04/23 08:45:11;;;;;;;0.05;0.05;;;10.20;96.00;;;;;;5503741;26;20081;-66
2024/04/23 08:47:37;;;;;;;0.00;0.00;;;10.00;96.30;;;;;;5536355;25;19993;-66
2024/04/23 08:50:04;;;;;;;0.00;0.00;;;9.90;96.50;;;;;;5535539;25;19996;-66
2024/04/23 08:52:29;;;;;;;0.35;0.35;;;9.90;93.70;;;;;;5535421;25;20283;-66
2024/04/23 08:54:55;;;;;;;0.93;0.25;;;9.90;96.40;;;;;;5535421;25;19985;-66
2024/04/23 08:57:21;;;;;;;0.00;0.00;;;9.80;96.10;;;;;;5543337;25;19988;-66
2024/04/23 08:59:48;;;;;;;0.10;0.10;;;9.90;81.20;;;;;;5558432;25;20019;-66
2024/04/23 09:02:29;;;;;;;0.65;0.15;;;9.90;96.20;;;;;;5536573;25;19981;-66
2024/04/23 09:04:56;;;;;;;0.00;0.00;;;9.90;90.60;;;;;;5538512;25;20005;-66
2024/04/23 09:07:24;;;;;;;0.17;0.17;;;10.00;95.80;;;;;;5473884;25;20131;-65
2024/04/23 09:09:50;;;;;;;0.30;0.10;;;10.20;95.80;;;;;;5535252;25;20117;-66
2024/04/23 09:12:16;;;;;;;0.00;0.00;;;9.90;95.70;;;;;;5535082;25;19989;-66
2024/04/23 09:14:44;;;;;;;0.45;0.08;;;9.80;95.50;;;;;;5538019;25;20312;-66
2024/04/23 09:17:11;;;;;;;0.00;0.00;;;9.80;95.60;;;;;;5513125;25;20037;-66
2024/04/23 09:19:37;;;;;;;0.17;0.17;;;9.80;95.70;;;;;;5537811;25;20256;-66
2024/04/23 09:22:04;;;;;;;0.00;0.00;;;9.70;96.00;;;;;;5535928;25;20205;-66
2024/04/23 09:24:31;;;;;;;0.00;0.00;;;;;;;;;;5534777;25;19993;-66
2024/04/23 09:26:57;;;;;;;0.30;0.10;;;9.90;81.00;;;;;;5534665;25;19993;-66
2024/04/23 09:29:28;;;;;;;0.00;0.00;;;9.90;84.80;;;;;;5505873;25;20030;-66
2024/04/23 09:31:55;;;;;;;0.00;0.00;;;10.00;80.20;;;;;;5538976;25;19989;-66
2024/04/23 09:34:27;;;;;;;0.10;0.10;;;10.10;95.50;;;;;;5539597;25;20000;-66
2024/04/23 09:36:53;;;;;;;0.00;0.00;;;10.40;95.40;;;;;;5535781;25;20000;-65
2024/04/23 09:39:19;;;;;;;0.10;0.10;;;10.20;95.20;;;;;;5538497;25;19997;-66
2024/04/23 09:41:57;;;;;;;0.30;0.20;;;10.00;95.30;;;;;;5534549;25;19997;-65
2024/04/23 09:44:24;;;;;;;0.10;0.10;;;10.10;95.20;;;;;;5534823;25;20217;-66
2024/04/23 09:46:50;;;;;;;0.32;0.15;;;;;;;;;;5534889;25;20054;-66
2024/04/23 09:49:19;;;;;;;0.70;0.50;;;10.40;90.70;;;;;;5540809;25;20040;-66
2024/04/23 09:51:46;;;;;;;0.00;0.00;;;;;;;;;;5534583;25;19989;-66
2024/04/23 09:54:12;;;;;;;1.45;0.20;;;;;;;;;;5545993;25;20038;-66
2024/04/23 09:56:37;;;;;;;2.92;0.40;;;10.50;94.80;;;;;;5535611;25;20042;-66
2024/04/23 09:59:03;;;;;;;0.52;0.10;;;10.50;94.80;;;;;;5538226;25;19992;-66
2024/04/23 10:01:29;;;;;;;0.00;0.00;;;10.60;94.90;;;;;;5538836;25;20110;-66
2024/04/23 10:03:59;;;;;;;0.17;0.10;;;10.60;87.20;;;;;;5536359;25;19985;-66
2024/04/23 10:06:28;;;;;;;0.00;0.00;;;10.70;94.50;;;;;;5549674;25;20016;-66
2024/04/23 10:09:15;;;;;;;0.15;0.15;;;10.60;78.20;;;;;;5502522;26;19989;-66
2024/04/23 10:12:12;;;;;;;0.20;0.20;;;10.70;94.60;;;;;;5534109;25;20004;-66
2024/04/23 10:15:06;;;;;;;0.00;0.00;;;10.70;77.40;;;;;;5534143;25;19996;-66
2024/04/23 10:17:32;;;;;;;0.03;0.03;;;10.70;94.10;;;;;;5508509;25;19995;-66
2024/04/23 10:20:01;;;;;;;0.10;0.10;;;10.90;94.20;;;;;;5533813;25;20004;-66
2024/04/23 10:22:29;;;;;;;0.40;0.10;;;10.70;94.20;;;;;;5553385;25;19999;-66
2024/04/23 10:24:56;;;;;;;0.00;0.00;;;10.90;94.30;;;;;;5564426;25;19985;-66
2024/04/23 10:27:23;;;;;;;0.08;0.08;;;11.00;94.20;;;;;;5525406;25;20016;-66
2024/04/23 10:29:50;;;;;;;0.43;0.25;;;11.00;94.40;;;;;;5542949;25;20096;-67
2024/04/23 10:32:19;;;;;;;0.10;0.10;;;11.20;94.00;;;;;;5563715;25;19986;-66
2024/04/23 10:34:47;;;;;;;0.30;0.30;;;11.20;94.00;;;;;;5554570;25;19995;-66
2024/04/23 10:37:15;;;;;;;0.00;0.00;;;11.20;93.80;;;;;;5534099;25;20227;-66
2024/04/23 10:39:41;;;;;;;0.00;0.00;;;11.30;93.50;;;;;;5538562;25;20210;-66
2024/04/23 10:42:08;;;;;;;0.10;0.10;;;11.40;93.40;;;;;;5525012;25;19996;-67
2024/04/23 10:44:36;;;;;;;0.85;0.47;;;11.30;76.50;;;;;;5551641;25;20008;-66
2024/04/23 10:47:02;;;;;;;0.00;0.00;;;11.60;93.60;;;;;;5535963;25;19993;-67
2024/04/23 10:49:28;;;;;;;0.65;0.43;;;11.50;94.00;;;;;;5538568;25;19997;-67
2024/04/23 10:51:56;;;;;;;0.08;0.08;;;11.60;94.80;;;;;;5533888;25;19989;-67
2024/04/23 10:54:23;;;;;;;0.00;0.00;;;11.80;93.70;;;;;;5503998;25;20000;-67
2024/04/23 10:57:04;;;;;;;0.10;0.10;;;11.50;93.60;;;;;;5546172;25;19989;-66
2024/04/23 10:59:30;;;;;;;0.22;0.22;;;11.70;93.70;;;;;;5543495;25;19999;-67
2024/04/23 11:01:58;;;;;;;0.00;0.00;;;11.60;93.60;;;;;;5533492;25;19986;-67
2024/04/23 11:04:29;;;;;;;0.30;0.30;;;11.50;93.50;;;;;;5534310;25;20250;-67
2024/04/23 11:07:07;;;;;;;0.32;0.17;;;11.90;94.00;;;;;;5533030;25;20037;-67
2024/04/23 11:09:58;;;;;;;0.20;0.20;;;11.60;93.60;;;;;;5536325;25;19985;-67
2024/04/23 11:12:24;;;;;;;0.30;0.30;;;11.90;93.70;;;;;;5535313;25;20546;-67
2024/04/23 11:14:51;;;;;;;0.52;0.10;;;11.70;75.80;;;;;;5538876;25;20198;-66
2024/04/23 11:17:18;;;;;;;0.00;0.00;;;11.70;93.70;;;;;;5540080;25;19997;-66
2024/04/23 11:20:18;;;;;;;0.00;0.00;;;11.70;75.10;;;;;;5534836;25;20029;-66
2024/04/23 11:22:53;;;;;;;0.10;0.10;;;11.90;92.70;;;;;;5534082;25;20024;-67
2024/04/23 11:25:33;;;;;;;0.17;0.10;;;12.00;92.20;;;;;;5533095;25;19989;-66
2024/04/23 11:28:05;;;;;;;0.00;0.00;;;;;;;;;;5535357;25;20049;-66
2024/04/23 11:30:31;;;;;;;0.25;0.25;;;12.50;91.80;;;;;;5533201;25;20046;-67
2024/04/23 11:32:57;;;;;;;0.00;0.00;;;12.10;91.70;;;;;;5534293;25;19985;-67
2024/04/23 11:35:24;;;;;;;0.00;0.00;;;12.30;73.70;;;;;;5533118;25;19993;-67
2024/04/23 11:37:59;;;;;;;0.30;0.22;;;12.50;91.70;;;;;;5534315;25;19985;-66
2024/04/23 11:40:25;;;;;;;0.00;0.00;;;12.20;91.80;;;;;;5532933;25;20048;-68
2024/04/23 11:42:51;;;;;;;0.10;0.10;;;12.50;91.80;;;;;;5538242;25;20001;-67
2024/04/23 11:45:17;;;;;;;0.10;0.10;;;12.10;91.80;;;;;;5542978;25;19997;-66
2024/04/23 11:47:45;;;;;;;0.43;0.43;;;12.10;91.50;;;;;;5532696;25;20001;-67
2024/04/23 11:50:13;;;;;;;0.20;0.20;;;12.70;91.70;;;;;;5516515;26;19993;-67
2024/04/23 11:52:39;;;;;;;0.10;0.10;;;12.30;89.80;;;;;;5538481;25;20045;-67
2024/04/23 11:55:08;;;;;;;0.08;0.08;;;12.30;73.10;;;;;;5544668;25;20005;-67
2024/04/23 11:57:38;;;;;;;0.70;0.20;;;12.40;91.60;;;;;;5538494;25;19988;-66
2024/04/23 12:00:04;;;;;;;0.10;0.10;;;12.60;84.10;;;;;;5549122;25;20201;-66
2024/04/23 12:02:32;;;;;;;0.00;0.00;;;12.20;73.60;;;;;;5507615;25;20086;-66
2024/04/23 12:05:01;;;;;;;3.83;0.20;;;12.30;91.80;;;;;;5532138;25;19996;-66
2024/04/23 12:07:27;;;;;;;0.10;0.10;;;12.30;91.80;;;;;;5532008;25;20079;-66
2024/04/23 12:09:53;;;;;;;0.13;0.13;;;12.10;91.70;;;;;;5536330;25;19981;-66
2024/04/23 12:12:19;;;;;;;0.05;0.05;;;12.20;91.70;;;;;;5533315;25;19999;-66
2024/04/23 12:14:45;;;;;;;0.00;0.00;;;12.30;91.80;;;;;;5532006;25;20199;-66
2024/04/23 12:17:11;;;;;;;0.10;0.10;;;12.30;91.60;;;;;;5541032;25;19989;-66
2024/04/23 12:19:37;;;;;;;0.52;0.52;;;12.10;91.70;;;;;;5531881;25;20025;-66
2024/04/23 12:22:13;;;;;;;0.10;0.10;;;12.10;91.80;;;;;;5474966;26;19994;-66
2024/04/23 12:24:39;;;;;;;0.20;0.20;;;;;;;;;;5532783;25;20014;-66
2024/04/23 12:27:08;;;;;;;0.25;0.20;;;12.10;91.80;;;;;;5532006;25;20021;-66
2024/04/23 12:29:34;;;;;;;0.03;0.03;;;12.10;91.80;;;;;;5533292;25;20000;-66
2024/04/23 12:32:01;;;;;;;0.00;0.00;;;11.80;73.50;;;;;;5532320;25;20598;-67
2024/04/23 12:34:27;;;;;;;0.13;0.13;;;12.00;91.90;;;;;;5531928;25;19990;-66
2024/04/23 12:36:54;;;;;;;0.10;0.10;;;12.00;91.80;;;;;;5505924;25;20016;-66
2024/04/23 12:39:20;;;;;;;0.10;0.10;;;12.00;91.70;;;;;;5500024;26;20090;-66
2024/04/23 12:41:46;;;;;;;0.10;0.10;;;;;;;;;;5531550;25;20037;-66
2024/04/23 12:44:16;;;;;;;0.28;0.13;;;12.00;91.80;;;;;;5532510;25;20355;-66
2024/04/23 12:46:42;;;;;;;1.88;0.52;;;11.90;83.50;;;;;;5536043;25;19992;-66
2024/04/23 12:49:08;;;;;;;0.05;0.05;;;11.80;91.60;;;;;;5533047;25;20041;-66
2024/04/23 12:51:34;;;;;;;0.03;0.03;;;12.00;91.70;;;;;;5535178;25;19985;-66
2024/04/23 12:54:00;;;;;;;0.40;0.40;;;12.30;91.70;;;;;;5535491;25;19986;-66
2024/04/23 12:56:31;;;;;;;0.10;0.10;;;12.40;91.40;;;;;;5535085;25;20043;-67
2024/04/23 12:58:56;;;;;;;0.00;0.00;;;12.40;91.30;;;;;;5535306;25;20003;-66
2024/04/23 13:01:22;;;;;;;0.00;0.00;;;12.40;91.10;;;;;;5544091;25;20435;-66
2024/04/23 13:03:48;;;;;;;0.10;0.10;;;12.40;91.50;;;;;;5540716;25;19989;-66
2024/04/23 13:06:14;;;;;;;0.20;0.20;;;12.60;91.50;;;;;;5535220;25;19999;-66
2024/04/23 13:08:39;;;;;;;0.70;0.20;;;12.60;91.50;;;;;;5534994;25;20090;-66
2024/04/23 13:11:05;;;;;;;0.20;0.10;;;12.60;73.20;;;;;;5535179;25;19986;-66
2024/04/23 13:13:31;;;;;;;3.42;0.22;;;12.70;73.20;;;;;;5473243;25;19986;-65
2024/04/23 13:15:57;;;;;;;0.10;0.10;;;12.70;73.00;;;;;;5536212;25;20010;-67
2024/04/23 13:18:22;;;;;;;0.25;0.25;;;12.70;72.40;;;;;;5541261;25;19989;-66
2024/04/23 13:20:48;;;;;;;0.00;0.00;;;12.70;73.10;;;;;;5536937;25;19994;-66
2024/04/23 13:23:14;;;;;;;0.10;0.10;;;11.40;72.50;;;;;;5535060;25;19996;-66